Time;durP1;ratioP1;P1;durP2;ratioP2;P2;SDS_P1;SDS_P2;PMS_P1;PMS_P2;Temp;Humidity;BMP_temperature;BMP_pressure;BME280_temperature;BME280_humidity;BME280_pressure;Samples;Min_cycle;Max_cycle;Signal;HPM_P1;HPM_P2
2022/10/21 00:01:22;;;;;;;7.57;5.57;;;;;;;;;;5026667;28;20723;-51
2022/10/21 00:03:48;;;;;;;8.70;6.10;;;;;;;;;;5018448;28;20224;-53
2022/10/21 00:06:15;;;;;;;6.50;5.77;;;;;;;;;;5021770;28;20237;-52
2022/10/21 00:08:41;;;;;;;7.00;5.67;;;;;;;;;;5016824;28;20244;-51
2022/10/21 00:11:08;;;;;;;7.57;5.80;;;;;;;;;;5025217;28;20762;-52
2022/10/21 00:13:37;;;;;;;7.13;5.83;;;;;;;;;;5025532;28;20232;-53
2022/10/21 00:16:06;;;;;;;5.83;5.23;;;;;;;;;;5024347;28;20239;-54
2022/10/21 00:18:34;;;;;;;7.77;6.17;;;;;;;;;;5023726;28;20264;-51
2022/10/21 00:21:00;;;;;;;6.87;6.10;;;;;;;;;;5018728;28;20714;-52
2022/10/21 00:23:27;;;;;;;7.30;6.60;;;;;;;;;;5022102;28;20267;-52
2022/10/21 00:25:56;;;;;;;6.43;5.00;;;;;;;;;;5021799;28;20302;-55
2022/10/21 00:28:22;;;;;;;6.97;5.77;;;;;;;;;;5023246;28;20232;-53
2022/10/21 00:30:49;;;;;;;6.20;5.50;;;;;;;;;;5023946;28;20707;-53
2022/10/21 00:33:17;;;;;;;7.37;5.63;;;;;;;;;;5025018;28;20327;-54
2022/10/21 00:35:49;;;;;;;7.10;5.50;;;;;;;;;;5022519;28;20617;-53
2022/10/21 00:38:16;;;;;;;6.13;5.53;;;;;;;;;;5022799;28;20726;-51
2022/10/21 00:40:42;;;;;;;6.97;5.50;;;;;;;;;;5023336;28;20239;-54
2022/10/21 00:43:09;;;;;;;6.47;5.73;;;;;;;;;;5024611;28;20228;-53
2022/10/21 00:45:36;;;;;;;8.13;5.60;;;;;;;;;;5021988;28;20233;-52
2022/10/21 00:48:04;;;;;;;7.67;5.50;;;;;;;;;;5022584;28;20233;-52
2022/10/21 00:50:34;;;;;;;8.83;5.90;;;;;;;;;;5023192;28;20607;-52
2022/10/21 00:53:01;;;;;;;6.20;5.60;;;;;;;;;;5021815;28;20233;-52
2022/10/21 00:55:29;;;;;;;6.33;5.43;;;;;;;;;;5023987;28;20255;-52
2022/10/21 00:57:56;;;;;;;8.27;5.20;;;;;;;;;;5022136;28;20275;-51
2022/10/21 01:00:23;;;;;;;6.53;5.77;;;;;;;;;;5024095;28;20638;-53
2022/10/21 01:02:49;;;;;;;7.10;5.60;;;;;;;;;;5022926;28;20233;-51
2022/10/21 01:05:17;;;;;;;5.83;5.33;;;;;;;;;;5022981;28;20679;-52
2022/10/21 01:07:46;;;;;;;6.70;5.60;;;;;;;;;;5020798;28;20236;-53
2022/10/21 01:10:12;;;;;;;7.00;5.93;;;;;;;;;;5018685;28;20290;-51
2022/10/21 01:12:50;;;;;;;6.93;5.63;;;;;;;;;;5022043;28;20240;-52
2022/10/21 01:15:18;;;;;;;5.67;5.10;;;;;;;;;;5023482;28;20228;-51
2022/10/21 01:17:49;;;;;;;7.00;6.30;;;;;;;;;;5021958;28;20243;-52
2022/10/21 01:20:32;;;;;;;7.27;6.50;;;;;;;;;;5018605;28;20233;-52
2022/10/21 01:23:17;;;;;;;8.67;6.17;;;;;;;;;;5018728;28;20236;-51
2022/10/21 01:25:57;;;;;;;6.53;5.87;;;;;;;;;;5021753;28;20259;-51
2022/10/21 01:28:27;;;;;;;11.23;6.77;;;;;;;;;;5021184;28;20237;-51
2022/10/21 01:30:57;;;;;;;7.27;6.23;;;;;;;;;;5024276;28;20236;-51
2022/10/21 01:33:42;;;;;;;7.57;5.77;;;;;;;;;;5023103;28;20243;-51
2022/10/21 01:36:11;;;;;;;8.90;5.80;;;;;;;;;;5009289;28;20264;-51
2022/10/21 01:38:42;;;;;;;7.87;5.77;;;;;;;;;;5022826;28;20837;-52
2022/10/21 01:41:10;;;;;;;6.97;5.13;;;;;;;;;;5021978;28;20235;-51
2022/10/21 01:43:39;;;;;;;7.13;5.97;;;;;;;;;;5021943;28;20236;-52
2022/10/21 01:46:11;;;;;;;7.63;5.67;;;;;;;;;;5021040;28;20613;-52
2022/10/21 01:48:41;;;;;;;8.20;6.03;;;;;;;;;;5021425;28;20228;-53
2022/10/21 01:51:09;;;;;;;7.93;6.60;;;;;;;;;;5017603;28;20235;-52
2022/10/21 01:53:38;;;;;;;6.33;5.40;;;;;;;;;;5020632;28;20243;-52
2022/10/21 01:56:05;;;;;;;7.40;5.73;;;;;;;;;;5021187;28;20711;-53
2022/10/21 01:58:34;;;;;;;8.43;6.60;;;;;;;;;;5023441;28;20319;-52
2022/10/21 02:01:01;;;;;;;5.87;5.27;;;;;;;;;;5022406;28;20229;-52
2022/10/21 02:03:31;;;;;;;6.60;5.57;;;;;;;;;;5020008;28;20319;-52
2022/10/21 02:05:58;;;;;;;6.67;5.90;;;;;;;;;;5023389;28;20319;-52
2022/10/21 02:08:25;;;;;;;7.30;5.97;;;;;;;;;;5022372;28;20237;-51
2022/10/21 02:10:53;;;;;;;5.87;5.27;;;;;;;;;;5016776;28;20316;-52
2022/10/21 02:13:22;;;;;;;7.10;6.40;;;;;;;;;;5021117;28;20442;-52
2022/10/21 02:15:50;;;;;;;6.77;6.03;;;;;;;;;;5021285;28;20310;-52
2022/10/21 02:18:18;;;;;;;6.97;6.20;;;;;;;;;;5022568;28;20792;-52
2022/10/21 02:20:49;;;;;;;6.40;5.80;;;;;;;;;;5023116;28;20252;-52
2022/10/21 02:23:17;;;;;;;6.07;5.30;;;;;;;;;;5022513;28;20256;-52
2022/10/21 02:25:44;;;;;;;6.37;5.77;;;;;;;;;;5020619;28;20691;-52
2022/10/21 02:28:12;;;;;;;6.73;6.00;;;;;;;;;;5022903;28;20244;-52
2022/10/21 02:30:42;;;;;;;7.70;5.60;;;;;;;;;;5019615;28;20232;-52
2022/10/21 02:33:10;;;;;;;7.87;5.87;;;;;;;;;;5021407;28;20653;-52
2022/10/21 02:35:40;;;;;;;10.30;5.63;;;;;;;;;;5017029;28;20375;-52
2022/10/21 02:38:12;;;;;;;8.80;5.80;;;;;;;;;;5022799;28;20275;-50
2022/10/21 02:40:42;;;;;;;8.93;6.13;;;;;;;;;;5022189;28;20287;-51
2022/10/21 02:43:10;;;;;;;6.70;6.03;;;;;;;;;;5023872;28;20319;-53
2022/10/21 02:45:37;;;;;;;8.17;6.63;;;;;;;;;;5020377;28;20328;-51
2022/10/21 02:48:04;;;;;;;6.67;5.37;;;;;;;;;;5025076;28;20263;-52
2022/10/21 02:50:30;;;;;;;6.63;5.93;;;;;;;;;;5021851;28;20271;-53
2022/10/21 02:52:57;;;;;;;8.20;5.80;;;;;;;;;;5027252;28;20699;-52
2022/10/21 02:55:25;;;;;;;6.90;6.20;;;;;;;;;;5023770;28;20233;-52
2022/10/21 02:57:51;;;;;;;10.87;5.77;;;;;;;;;;5027965;28;20240;-52
2022/10/21 03:00:18;;;;;;;7.50;5.57;;;;;;;;;;5025412;28;20244;-53
2022/10/21 03:02:45;;;;;;;7.17;6.40;;;;;;;;;;5026841;28;20243;-52
2022/10/21 03:05:11;;;;;;;7.03;5.63;;;;;;;;;;5024379;28;20729;-52
2022/10/21 03:07:38;;;;;;;8.37;6.10;;;;;;;;;;5024517;28;20753;-53
2022/10/21 03:10:05;;;;;;;7.17;6.47;;;;;;;;;;5021642;28;20241;-51
2022/10/21 03:12:33;;;;;;;6.20;5.60;;;;;;;;;;5022222;28;20286;-52
2022/10/21 03:15:00;;;;;;;7.60;6.43;;;;;;;;;;5024026;28;20232;-52
2022/10/21 03:17:28;;;;;;;6.40;5.70;;;;;;;;;;5024365;28;20714;-53
2022/10/21 03:19:54;;;;;;;6.17;5.53;;;;;;;;;;5020430;28;20956;-52
2022/10/21 03:22:21;;;;;;;6.73;6.03;;;;;;;;;;5025769;28;20306;-52
2022/10/21 03:24:47;;;;;;;7.00;6.30;;;;;;;;;;5018493;28;20232;-52
2022/10/21 03:27:14;;;;;;;8.37;7.03;;;;;;;;;;5023882;28;20344;-53
2022/10/21 03:29:42;;;;;;;6.87;6.17;;;;;;;;;;5023495;28;20232;-52
2022/10/21 03:32:08;;;;;;;10.53;6.77;;;;;;;;;;5020563;28;20252;-53
2022/10/21 03:34:35;;;;;;;7.93;6.60;;;;;;;;;;5024517;28;20304;-52
2022/10/21 03:37:01;;;;;;;9.33;6.90;;;;;;;;;;5024440;28;20240;-52
2022/10/21 03:39:28;;;;;;;8.30;6.70;;;;;;;;;;5024721;28;20237;-53
2022/10/21 03:41:54;;;;;;;7.83;7.00;;;;;;;;;;5022163;28;20300;-52
2022/10/21 03:44:21;;;;;;;6.87;6.13;;;;;;;;;;5019907;28;20236;-51
2022/10/21 03:46:49;;;;;;;8.30;6.90;;;;;;;;;;5025408;28;20232;-53
2022/10/21 03:49:15;;;;;;;9.30;6.80;;;;;;;;;;5024051;28;20236;-51
2022/10/21 03:51:42;;;;;;;9.13;6.47;;;;;;;;;;5022815;28;20564;-52
2022/10/21 03:54:09;;;;;;;9.10;7.47;;;;;;;;;;5026146;28;20230;-52
2022/10/21 03:56:35;;;;;;;9.43;6.83;;;;;;;;;;5026371;28;20240;-52
2022/10/21 03:59:02;;;;;;;10.40;6.80;;;;;;;;;;5024022;28;20233;-51
2022/10/21 04:01:28;;;;;;;12.73;7.47;;;;;;;;;;5023673;28;20776;-52
2022/10/21 04:03:56;;;;;;;8.40;7.10;;;;;;;;;;5024962;28;20232;-51
2022/10/21 04:06:23;;;;;;;8.53;7.73;;;;;;;;;;5021909;28;20289;-51
2022/10/21 04:08:50;;;;;;;9.80;7.27;;;;;;;;;;5019986;28;20658;-52
2022/10/21 04:11:16;;;;;;;9.13;7.93;;;;;;;;;;5021542;28;20649;-52
2022/10/21 04:13:43;;;;;;;9.17;8.00;;;;;;;;;;5026502;28;20344;-52
2022/10/21 04:16:13;;;;;;;10.00;8.20;;;;;;;;;;5023583;28;20244;-52
2022/10/21 04:18:39;;;;;;;7.67;6.90;;;;;;;;;;5025776;28;20236;-53
2022/10/21 04:21:08;;;;;;;7.33;6.60;;;;;;;;;;5022760;28;20322;-58
2022/10/21 04:23:35;;;;;;;10.70;8.23;;;;;;;;;;5021227;28;20303;-52
2022/10/21 04:26:01;;;;;;;7.77;6.93;;;;;;;;;;5024260;28;20232;-53
2022/10/21 04:28:28;;;;;;;8.93;7.83;;;;;;;;;;5023349;28;20239;-52
2022/10/21 04:30:54;;;;;;;9.63;7.60;;;;;;;;;;5018281;28;20235;-52
2022/10/21 04:33:21;;;;;;;9.43;7.17;;;;;;;;;;5025131;28;20248;-52
2022/10/21 04:35:48;;;;;;;7.20;6.50;;;;;;;;;;5025008;28;20315;-52
2022/10/21 04:38:16;;;;;;;8.23;6.60;;;;;;;;;;5021970;28;20322;-51
2022/10/21 04:40:42;;;;;;;7.93;6.90;;;;;;;;;;5024149;28;21268;-52
2022/10/21 04:43:09;;;;;;;9.10;8.07;;;;;;;;;;5019363;28;20229;-52
2022/10/21 04:45:38;;;;;;;8.13;7.33;;;;;;;;;;5017235;28;20224;-52
2022/10/21 04:48:04;;;;;;;8.70;7.17;;;;;;;;;;5022822;28;20876;-52
2022/10/21 04:50:31;;;;;;;13.63;8.23;;;;;;;;;;5022535;28;20233;-52
2022/10/21 04:52:58;;;;;;;10.00;7.13;;;;;;;;;;5022318;28;20236;-54
2022/10/21 04:55:25;;;;;;;9.47;7.97;;;;;;;;;;5024895;28;20239;-53
2022/10/21 04:57:52;;;;;;;12.67;8.57;;;;;;;;;;5025304;28;20274;-53
2022/10/21 05:00:18;;;;;;;10.13;8.47;;;;;;;;;;5023899;28;20252;-52
2022/10/21 05:02:45;;;;;;;8.57;7.77;;;;;;;;;;5021797;28;20229;-52
2022/10/21 05:05:12;;;;;;;6.73;6.03;;;;;;;;;;5023575;28;20224;-51
2022/10/21 05:07:38;;;;;;;8.73;7.83;;;;;;;;;;5017860;28;20228;-51
2022/10/21 05:10:05;;;;;;;8.43;7.63;;;;;;;;;;5023219;28;20282;-53
2022/10/21 05:12:33;;;;;;;8.27;7.47;;;;;;;;;;5022438;28;20240;-52
2022/10/21 05:15:01;;;;;;;7.97;6.63;;;;;;;;;;5020940;28;20229;-51
2022/10/21 05:17:27;;;;;;;8.60;7.70;;;;;;;;;;5022609;28;20237;-51
2022/10/21 05:19:54;;;;;;;9.77;8.47;;;;;;;;;;5023843;28;20248;-52
2022/10/21 05:22:21;;;;;;;8.43;7.63;;;;;;;;;;5023637;28;20233;-52
2022/10/21 05:24:47;;;;;;;8.83;7.80;;;;;;;;;;5018502;28;20232;-51
2022/10/21 05:27:14;;;;;;;8.03;7.23;;;;;;;;;;5017474;28;20233;-52
2022/10/21 05:29:42;;;;;;;8.67;7.40;;;;;;;;;;5021814;28;20248;-52
2022/10/21 05:32:09;;;;;;;9.87;7.53;;;;;;;;;;5024024;28;20307;-52
2022/10/21 05:34:36;;;;;;;10.67;8.10;;;;;;;;;;5021576;28;20283;-51
2022/10/21 05:37:02;;;;;;;10.37;7.00;;;;;;;;;;5023524;28;20307;-52
2022/10/21 05:39:28;;;;;;;8.87;7.40;;;;;;;;;;5022846;28;20280;-52
2022/10/21 05:41:55;;;;;;;11.93;8.30;;;;;;;;;;5024782;28;20753;-51
2022/10/21 05:44:22;;;;;;;9.00;7.90;;;;;;;;;;5020994;28;20236;-52
2022/10/21 05:46:50;;;;;;;8.23;7.27;;;;;;;;;;5020967;28;20240;-53
2022/10/21 05:49:16;;;;;;;8.87;7.97;;;;;;;;;;5023726;28;20236;-52
2022/10/21 05:51:43;;;;;;;8.20;7.33;;;;;;;;;;5022158;28;20240;-53
2022/10/21 05:54:13;;;;;;;8.20;7.00;;;;;;;;;;5022187;28;20234;-52
2022/10/21 05:56:40;;;;;;;8.90;7.30;;;;;;;;;;5020097;28;20318;-53
2022/10/21 05:59:07;;;;;;;9.50;7.53;;;;;;;;;;5021614;28;20298;-52
2022/10/21 06:01:33;;;;;;;9.63;7.60;;;;;;;;;;5024483;28;20842;-52
2022/10/21 06:04:01;;;;;;;10.03;8.20;;;;;;;;;;5018284;28;20237;-51
2022/10/21 06:06:28;;;;;;;9.20;8.30;;;;;;;;;;5018786;28;20330;-51
2022/10/21 06:08:54;;;;;;;11.17;7.73;;;;;;;;;;5022354;28;20315;-51
2022/10/21 06:11:21;;;;;;;9.70;7.57;;;;;;;;;;5015479;28;20704;-52
2022/10/21 06:13:47;;;;;;;12.20;8.57;;;;;;;;;;5022438;28;20228;-52
2022/10/21 06:16:14;;;;;;;9.93;8.40;;;;;;;;;;5021365;28;20259;-53
2022/10/21 06:18:42;;;;;;;9.77;8.20;;;;;;;;;;5023312;28;20231;-51
2022/10/21 06:21:11;;;;;;;8.27;7.43;;;;;;;;;;5026000;28;20718;-52
2022/10/21 06:23:37;;;;;;;10.57;7.73;;;;;;;;;;5024839;28;20779;-52
2022/10/21 06:26:05;;;;;;;12.30;9.33;;;;;;;;;;5027449;28;20323;-52
2022/10/21 06:28:32;;;;;;;11.10;8.40;;;;;;;;;;5024337;28;20231;-51
2022/10/21 06:30:59;;;;;;;9.10;8.23;;;;;;;;;;5027197;28;20734;-52
2022/10/21 06:33:25;;;;;;;10.60;8.43;;;;;;;;;;5025503;28;20610;-51
2022/10/21 06:35:52;;;;;;;12.00;10.53;;;;;;;;;;5024591;28;20263;-55
2022/10/21 06:38:20;;;;;;;12.47;8.13;;;;;;;;;;5027986;28;20741;-52
2022/10/21 06:40:47;;;;;;;14.53;9.37;;;;;;;;;;5025385;28;20228;-52
2022/10/21 06:43:14;;;;;;;11.70;8.77;;;;;;;;;;5024291;28;20251;-52
2022/10/21 06:45:40;;;;;;;10.50;8.37;;;;;;;;;;5023255;28;20654;-53
2022/10/21 06:48:07;;;;;;;9.73;8.57;;;;;;;;;;5026173;28;20320;-53
2022/10/21 06:50:33;;;;;;;7.93;7.13;;;;;;;;;;5026574;28;20240;-50
2022/10/21 06:53:00;;;;;;;11.33;8.60;;;;;;;;;;5023198;28;20251;-51
2022/10/21 06:55:28;;;;;;;10.07;9.07;;;;;;;;;;5023316;28;20323;-51
2022/10/21 06:57:54;;;;;;;10.40;8.50;;;;;;;;;;5031854;28;20243;-52
2022/10/21 07:00:21;;;;;;;9.73;8.73;;;;;;;;;;5026941;28;20320;-53
2022/10/21 07:02:47;;;;;;;9.43;8.43;;;;;;;;;;5027290;28;20256;-53
2022/10/21 07:05:13;;;;;;;10.67;8.67;;;;;;;;;;5026314;28;20322;-52
2022/10/21 07:07:40;;;;;;;12.00;8.80;;;;;;;;;;5021035;28;20267;-53
2022/10/21 07:10:06;;;;;;;10.57;9.57;;;;;;;;;;5023707;28;20233;-52
2022/10/21 07:12:34;;;;;;;9.43;7.73;;;;;;;;;;5025002;28;20252;-53
2022/10/21 07:15:01;;;;;;;12.30;8.50;;;;;;;;;;5026040;28;20232;-51
2022/10/21 07:17:28;;;;;;;9.00;8.00;;;;;;;;;;5026474;28;20240;-51
2022/10/21 07:19:55;;;;;;;11.67;9.10;;;;;;;;;;5024034;28;20294;-52
2022/10/21 07:22:21;;;;;;;11.07;8.73;;;;;;;;;;5028588;28;20248;-55
2022/10/21 07:24:48;;;;;;;9.63;8.73;;;;;;;;;;5026234;28;20316;-52
2022/10/21 07:27:15;;;;;;;9.40;8.47;;;;;;;;;;5020691;28;20232;-51
2022/10/21 07:29:42;;;;;;;10.87;8.83;;;;;;;;;;5025359;28;20317;-53
2022/10/21 07:32:09;;;;;;;15.00;9.53;;;;;;;;;;5021874;28;20232;-52
2022/10/21 07:34:35;;;;;;;11.13;8.37;;;;;;;;;;5026729;28;20282;-51
2022/10/21 07:37:02;;;;;;;9.50;8.57;;;;;;;;;;5026929;28;20239;-51
2022/10/21 07:39:29;;;;;;;9.90;8.90;;;;;;;;;;5027771;28;20232;-53
2022/10/21 07:41:59;;;;;;;10.43;9.00;;;;;;;;;;5021566;28;20229;-53
2022/10/21 07:44:25;;;;;;;13.63;10.13;;;;;;;;;;5016948;28;20229;-51
2022/10/21 07:46:54;;;;;;;10.47;9.47;;;;;;;;;;5023778;28;20240;-52
2022/10/21 07:49:22;;;;;;;9.87;8.83;;;;;;;;;;5023510;28;20320;-51
2022/10/21 07:51:49;;;;;;;10.17;8.97;;;;;;;;;;5021682;28;20258;-51
2022/10/21 07:54:15;;;;;;;10.63;9.23;;;;;;;;;;5018770;28;20237;-52
2022/10/21 07:56:43;;;;;;;9.63;8.73;;;;;;;;;;5022763;28;20242;-50
2022/10/21 07:59:10;;;;;;;9.57;8.57;;;;;;;;;;5024317;28;20240;-52
2022/10/21 08:01:36;;;;;;;9.77;8.80;;;;;;;;;;5023116;28;20279;-51
2022/10/21 08:04:04;;;;;;;10.23;9.07;;;;;;;;;;5024169;28;20236;-51
2022/10/21 08:06:31;;;;;;;14.70;9.00;;;;;;;;;;5019498;28;20319;-52
2022/10/21 08:08:57;;;;;;;15.23;9.40;;;;;;;;;;5024032;28;20323;-52
2022/10/21 08:11:25;;;;;;;9.13;8.10;;;;;;;;;;5023824;28;20252;-54
2022/10/21 08:13:52;;;;;;;10.07;8.77;;;;;;;;;;5022892;28;20233;-51
2022/10/21 08:16:18;;;;;;;9.77;8.77;;;;;;;;;;5016551;28;20241;-51
2022/10/21 08:18:45;;;;;;;9.27;8.20;;;;;;;;;;5019238;28;20236;-51
2022/10/21 08:21:12;;;;;;;11.17;9.73;;;;;;;;;;5021583;28;20252;-51
2022/10/21 08:23:39;;;;;;;9.47;8.07;;;;;;;;;;5024085;28;20233;-52
2022/10/21 08:26:07;;;;;;;9.77;8.73;;;;;;;;;;5021359;28;20237;-53
2022/10/21 08:28:34;;;;;;;10.60;9.50;;;;;;;;;;5021047;28;20243;-51
2022/10/21 08:31:04;;;;;;;8.43;7.63;;;;;;;;;;5021485;28;20232;-53
2022/10/21 08:33:31;;;;;;;9.67;8.07;;;;;;;;;;5023586;28;20756;-53
2022/10/21 08:35:58;;;;;;;13.17;9.40;;;;;;;;;;5023432;28;20240;-51
2022/10/21 08:38:25;;;;;;;10.53;9.57;;;;;;;;;;5024190;28;20235;-51
2022/10/21 08:40:52;;;;;;;17.70;8.60;;;;;;;;;;5024219;28;20236;-52
2022/10/21 08:43:20;;;;;;;12.80;8.17;;;;;;;;;;5024280;28;20346;-52
2022/10/21 08:45:50;;;;;;;11.77;9.87;;;;;;;;;;5024466;28;20246;-53
2022/10/21 08:48:18;;;;;;;10.97;9.57;;;;;;;;;;5030074;28;20796;-52
2022/10/21 08:50:46;;;;;;;10.27;9.13;;;;;;;;;;5023587;28;20236;-52
2022/10/21 08:53:14;;;;;;;11.17;9.43;;;;;;;;;;5016105;28;21046;-53
2022/10/21 08:55:43;;;;;;;9.18;8.27;;;;;;;;;;5020697;28;20228;-52
2022/10/21 08:58:12;;;;;;;9.27;8.37;;;;;;;;;;5016864;28;20613;-52
2022/10/21 09:00:42;;;;;;;10.80;9.47;;;;;;;;;;5021633;28;20233;-51
2022/10/21 09:03:18;;;;;;;11.00;9.83;;;;;;;;;;5022519;28;20331;-56
2022/10/21 09:05:58;;;;;;;11.38;8.18;;;;;;;;;;5024985;28;20225;-50
2022/10/21 09:08:26;;;;;;;10.35;9.02;;;;;;;;;;5026634;28;20236;-52
2022/10/21 09:11:01;;;;;;;11.33;9.87;;;;;;;;;;5017831;28;20245;-51
2022/10/21 09:13:48;;;;;;;10.33;9.37;;;;;;;;;;5024357;28;20228;-52
2022/10/21 09:16:19;;;;;;;10.20;9.20;;;;;;;;;;5010299;28;20236;-51
2022/10/21 09:18:49;;;;;;;10.70;9.17;;;;;;;;;;5022937;28;20256;-51
2022/10/21 09:21:19;;;;;;;11.32;9.35;;;;;;;;;;5023744;28;20235;-52
2022/10/21 09:23:53;;;;;;;9.10;8.13;;;;;;;;;;5032565;28;20729;-52
2022/10/21 09:26:25;;;;;;;13.95;9.95;;;;;;;;;;5025551;28;20232;-50
2022/10/21 09:28:52;;;;;;;12.63;9.23;;;;;;;;;;5024676;28;20235;-53
2022/10/21 09:31:19;;;;;;;10.68;9.63;;;;;;;;;;5024062;28;20239;-51
2022/10/21 09:33:47;;;;;;;9.65;8.75;;;;;;;;;;5022740;28;20250;-51
2022/10/21 09:36:16;;;;;;;9.43;8.52;;;;;;;;;;5025706;28;20294;-51
2022/10/21 09:38:45;;;;;;;10.70;9.23;;;;;;;;;;5026179;28;20232;-51
2022/10/21 09:41:14;;;;;;;10.30;9.23;;;;;;;;;;5029689;28;20762;-52
2022/10/21 09:43:43;;;;;;;12.15;8.98;;;;;;;;;;5030608;28;20224;-50
2022/10/21 09:46:09;;;;;;;13.82;9.57;;;;;;;;;;5024351;28;20244;-51
2022/10/21 09:48:38;;;;;;;9.98;9.00;;;;;;;;;;5022960;28;20232;-52
2022/10/21 09:51:06;;;;;;;11.02;9.00;;;;;;;;;;5024854;28;20244;-52
2022/10/21 09:53:33;;;;;;;12.68;10.70;;;;;;;;;;5022900;28;20232;-52
2022/10/21 09:56:02;;;;;;;9.75;8.75;;;;;;;;;;5023737;28;20248;-53
2022/10/21 09:58:29;;;;;;;9.18;8.23;;;;;;;;;;5021451;28;20229;-51
2022/10/21 10:00:57;;;;;;;12.50;8.90;;;;;;;;;;5022118;28;20894;-52
2022/10/21 10:03:34;;;;;;;11.35;9.73;;;;;;;;;;5018837;28;20244;-52
2022/10/21 10:06:01;;;;;;;11.93;9.82;;;;;;;;;;5006184;28;20323;-51
2022/10/21 10:08:32;;;;;;;13.45;9.43;;;;;;;;;;5019298;28;20228;-52
2022/10/21 10:11:03;;;;;;;11.48;10.27;;;;;;;;;;5020276;28;20235;-51
2022/10/21 10:13:30;;;;;;;10.43;8.32;;;;;;;;;;5021557;28;20256;-52
2022/10/21 10:16:11;;;;;;;12.63;9.13;;;;;;;;;;5021993;28;20244;-53
2022/10/21 10:18:37;;;;;;;11.70;10.20;;;;;;;;;;5024611;28;20240;-51
2022/10/21 10:21:05;;;;;;;11.82;9.50;;;;;;;;;;5024640;28;20602;-55
2022/10/21 10:23:41;;;;;;;12.23;9.82;;;;;;;;;;5024485;28;20229;-52
2022/10/21 10:26:08;;;;;;;10.35;9.35;;;;;;;;;;5022806;28;20259;-52
2022/10/21 10:28:34;;;;;;;14.48;9.50;;;;;;;;;;5020924;28;20702;-52
2022/10/21 10:31:02;;;;;;;10.15;9.15;;;;;;;;;;5024116;28;20588;-50
2022/10/21 10:33:30;;;;;;;12.57;9.38;;;;;;;;;;5021785;28;20290;-52
2022/10/21 10:35:58;;;;;;;10.10;9.07;;;;;;;;;;5025232;28;20263;-52
2022/10/21 10:38:26;;;;;;;10.45;9.20;;;;;;;;;;5024033;28;20614;-51
2022/10/21 10:40:52;;;;;;;10.32;9.10;;;;;;;;;;5024198;28;20386;-52
2022/10/21 10:43:23;;;;;;;9.98;9.13;;;;;;;;;;5025104;28;20232;-51
2022/10/21 10:45:51;;;;;;;10.20;9.20;;;;;;;;;;5022645;28;20232;-52
2022/10/21 10:48:22;;;;;;;9.75;8.77;;;;;;;;;;5020496;28;20232;-52
2022/10/21 10:50:49;;;;;;;10.93;9.20;;;;;;;;;;5015347;28;20240;-51
2022/10/21 10:53:26;;;;;;;10.70;9.10;;;;;;;;;;5023974;28;20228;-51
2022/10/21 10:55:57;;;;;;;11.48;8.63;;;;;;;;;;5014647;28;20264;-51
2022/10/21 10:58:26;;;;;;;11.68;9.05;;;;;;;;;;5023005;28;20224;-51
2022/10/21 11:00:55;;;;;;;10.00;8.77;;;;;;;;;;5023625;28;20229;-50
2022/10/21 11:03:26;;;;;;;9.35;8.45;;;;;;;;;;5016850;28;20232;-52
2022/10/21 11:05:55;;;;;;;8.85;7.57;;;;;;;;;;5022286;28;20232;-53
2022/10/21 11:08:25;;;;;;;7.93;7.15;;;;;;;;;;5025632;28;20237;-51
2022/10/21 11:10:53;;;;;;;10.07;8.52;;;;;;;;;;5021942;28;20232;-51
2022/10/21 11:13:20;;;;;;;8.75;7.35;;;;;;;;;;5025301;28;21571;-50
2022/10/21 11:15:52;;;;;;;12.48;8.18;;;;;;;;;;5025829;28;20232;-52
2022/10/21 11:18:22;;;;;;;10.35;8.02;;;;;;;;;;5027014;28;20239;-52
2022/10/21 11:20:53;;;;;;;10.85;8.93;;;;;;;;;;5028399;28;20999;-54
2022/10/21 11:23:31;;;;;;;10.23;8.65;;;;;;;;;;5030290;28;20682;-51
2022/10/21 11:26:01;;;;;;;9.93;8.07;;;;;;;;;;5024327;28;20237;-51
2022/10/21 11:28:30;;;;;;;9.68;8.27;;;;;;;;;;5027315;28;20237;-50
2022/10/21 11:31:04;;;;;;;7.95;7.20;;;;;;;;;;5019343;28;20240;-53
2022/10/21 11:33:35;;;;;;;8.50;7.70;;;;;;;;;;5024355;28;20254;-52
2022/10/21 11:36:05;;;;;;;9.77;8.70;;;;;;;;;;5026918;28;20256;-51
2022/10/21 11:38:41;;;;;;;8.98;8.05;;;;;;;;;;5023628;28;20225;-52
2022/10/21 11:41:13;;;;;;;9.15;7.60;;;;;;;;;;5024948;28;20220;-52
2022/10/21 11:43:42;;;;;;;8.65;7.72;;;;;;;;;;5025518;28;20714;-53
2022/10/21 11:46:10;;;;;;;11.13;8.60;;;;;;;;;;5025402;28;20249;-51
2022/10/21 11:48:45;;;;;;;11.10;9.07;;;;;;;;;;5026111;28;20232;-52
2022/10/21 11:51:21;;;;;;;11.57;8.82;;;;;;;;;;5021756;28;20238;-52
2022/10/21 11:53:54;;;;;;;9.57;8.68;;;;;;;;;;5026404;28;20232;-51
2022/10/21 11:56:23;;;;;;;11.75;9.07;;;;;;;;;;5020402;28;20236;-51
2022/10/21 11:58:56;;;;;;;10.45;9.50;;;;;;;;;;5032805;28;20255;-51
2022/10/21 12:01:28;;;;;;;10.32;9.30;;;;;;;;;;5025851;28;20243;-52
2022/10/21 12:04:08;;;;;;;11.07;9.98;;;;;;;;;;5030907;28;20584;-53
2022/10/21 12:06:40;;;;;;;11.82;9.15;;;;;;;;;;5025398;28;20248;-51
2022/10/21 12:09:12;;;;;;;9.43;8.60;;;;;;;;;;5026166;28;20233;-51
2022/10/21 12:11:41;;;;;;;9.85;8.30;;;;;;;;;;5025421;28;20236;-51
2022/10/21 12:14:12;;;;;;;12.20;8.57;;;;;;;;;;5027002;28;20236;-53
2022/10/21 12:16:38;;;;;;;9.63;8.45;;;;;;;;;;5025968;28;20233;-52
2022/10/21 12:19:06;;;;;;;9.45;8.35;;;;;;;;;;5023896;28;20753;-52
2022/10/21 12:21:35;;;;;;;9.77;8.77;;;;;;;;;;5022200;28;20231;-52
2022/10/21 12:24:06;;;;;;;11.90;8.80;;;;;;;;;;5027231;28;20229;-52
2022/10/21 12:26:35;;;;;;;10.93;9.20;;;;;;;;;;5029814;28;20240;-51
2022/10/21 12:29:07;;;;;;;9.93;8.07;;;;;;;;;;5024261;28;20236;-51
2022/10/21 12:31:39;;;;;;;11.68;10.00;;;;;;;;;;5031598;28;20237;-51
2022/10/21 12:34:07;;;;;;;7.72;6.93;;;;;;;;;;5024080;28;20233;-52
2022/10/21 12:36:39;;;;;;;10.70;9.02;;;;;;;;;;5024656;28;20241;-52
2022/10/21 12:39:11;;;;;;;9.93;8.68;;;;;;;;;;5028169;28;20296;-52
2022/10/21 12:41:38;;;;;;;11.10;10.00;;;;;;;;;;5029255;28;20224;-51
2022/10/21 12:44:07;;;;;;;9.80;8.90;;;;;;;;;;5034105;28;20604;-51
2022/10/21 12:46:36;;;;;;;8.75;7.88;;;;;;;;;;5030631;28;20553;-51
2022/10/21 12:49:04;;;;;;;9.75;8.85;;;;;;;;;;5029775;28;20235;-51
2022/10/21 12:51:32;;;;;;;9.50;8.27;;;;;;;;;;5030573;28;20610;-51
2022/10/21 12:54:05;;;;;;;9.20;8.20;;;;;;;;;;5029652;28;20233;-51
2022/10/21 12:56:35;;;;;;;15.73;9.63;;;;;;;;;;5030364;28;20525;-51
2022/10/21 12:59:03;;;;;;;11.77;9.38;;;;;;;;;;5040256;28;20290;-52
2022/10/21 13:01:35;;;;;;;9.30;7.28;;;;;;;;;;5034393;28;20228;-51
2022/10/21 13:04:01;;;;;;;9.30;8.40;;;;;;;;;;5034087;28;20232;-52
2022/10/21 13:06:46;;;;;;;12.90;9.40;;;;;;;;;;5036557;28;20270;-52
2022/10/21 13:09:28;;;;;;;9.82;7.72;;;;;;;;;;5024359;28;20233;-51
2022/10/21 13:12:04;;;;;;;12.38;8.20;;;;;;;;;;5026001;28;20243;-51
2022/10/21 13:14:43;;;;;;;8.20;7.32;;;;;;;;;;5022515;28;20264;-51
2022/10/21 13:17:26;;;;;;;10.52;8.50;;;;;;;;;;5024735;28;20236;-52
2022/10/21 13:19:53;;;;;;;8.43;7.55;;;;;;;;;;5030760;28;20235;-52
2022/10/21 13:22:21;;;;;;;9.38;8.48;;;;;;;;;;5024118;28;20316;-55
2022/10/21 13:24:48;;;;;;;13.13;8.40;;;;;;;;;;5028213;28;20248;-52
2022/10/21 13:27:28;;;;;;;12.52;8.95;;;;;;;;;;5029457;28;21797;-51
2022/10/21 13:29:54;;;;;;;8.95;7.88;;;;;;;;;;5025680;28;20229;-51
2022/10/21 13:32:23;;;;;;;9.45;7.80;;;;;;;;;;5030590;28;20232;-50
2022/10/21 13:35:10;;;;;;;10.13;8.65;;;;;;;;;;5026614;28;20235;-52
2022/10/21 13:37:38;;;;;;;8.70;7.72;;;;;;;;;;4990604;28;20315;-52
2022/10/21 13:40:07;;;;;;;8.93;8.02;;;;;;;;;;5022892;28;20233;-50
2022/10/21 13:42:40;;;;;;;9.57;8.15;;;;;;;;;;5023793;28;20238;-52
2022/10/21 13:45:16;;;;;;;9.23;8.32;;;;;;;;;;5023150;28;20722;-51
2022/10/21 13:47:43;;;;;;;9.55;8.55;;;;;;;;;;5021677;28;20792;-51
2022/10/21 13:50:13;;;;;;;8.65;7.75;;;;;;;;;;5023519;28;20227;-51
2022/10/21 13:52:42;;;;;;;8.55;7.75;;;;;;;;;;5030355;28;20723;-56
2022/10/21 13:55:17;;;;;;;8.60;7.75;;;;;;;;;;5024016;28;20235;-52
2022/10/21 13:57:47;;;;;;;9.00;8.10;;;;;;;;;;5029293;28;20240;-50
2022/10/21 14:00:18;;;;;;;11.00;7.20;;;;;;;;;;5027295;28;20232;-51
2022/10/21 14:02:46;;;;;;;13.13;7.88;;;;;;;;;;5025999;28;20331;-52
2022/10/21 14:05:26;;;;;;;8.35;7.65;;;;;;;;;;5029375;28;20236;-53
2022/10/21 14:07:53;;;;;;;9.32;7.55;;;;;;;;;;5028547;28;20336;-50
2022/10/21 14:10:20;;;;;;;7.63;6.93;;;;;;;;;;5030567;28;20232;-51
2022/10/21 14:12:49;;;;;;;8.07;6.40;;;;;;;;;;5026099;28;20236;-52
2022/10/21 14:15:18;;;;;;;9.52;7.80;;;;;;;;;;5027243;28;20627;-52
2022/10/21 14:17:49;;;;;;;8.07;6.95;;;;;;;;;;5024180;28;20236;-52
2022/10/21 14:20:19;;;;;;;9.63;7.13;;;;;;;;;;5025730;28;20271;-52
2022/10/21 14:22:48;;;;;;;9.77;7.75;;;;;;;;;;5024109;28;20243;-52
2022/10/21 14:25:15;;;;;;;7.65;6.93;;;;;;;;;;5023664;28;20262;-51
2022/10/21 14:27:45;;;;;;;6.50;5.90;;;;;;;;;;5022017;28;20264;-50
2022/10/21 14:30:18;;;;;;;9.35;7.82;;;;;;;;;;5022998;28;20240;-51
2022/10/21 14:32:46;;;;;;;8.75;7.95;;;;;;;;;;5024112;28;20224;-52
2022/10/21 14:35:22;;;;;;;10.52;8.45;;;;;;;;;;5028685;28;20252;-55
2022/10/21 14:37:50;;;;;;;9.07;7.80;;;;;;;;;;5030364;28;20740;-50
2022/10/21 14:40:20;;;;;;;9.73;8.73;;;;;;;;;;5026125;28;20382;-52
2022/10/21 14:42:48;;;;;;;9.57;8.68;;;;;;;;;;5028935;28;20332;-51
2022/10/21 14:45:17;;;;;;;9.52;8.52;;;;;;;;;;5028254;28;20470;-52
2022/10/21 14:47:48;;;;;;;8.52;7.60;;;;;;;;;;5029003;28;20236;-51